Aviation Digital Data Service (ADDS)

Output produced by TAFs form (1358 UTC 30 January 2015)
found at http://www.aviationweather.gov/adds/tafs/
 
KABE 301300Z 3013/3112 26005KT 5SM -SN BR OVC035 
     FM301400 30012G19KT 6SM -SN SCT025 OVC035 
     FM301600 31015G25KT P6SM BKN035 
     FM302100 32022G39KT P6SM BKN035 
     FM310800 32017G30KT P6SM SKC